TKJ4144 LTAC-LTFD
Flight info
| Callsign | TKJ4144 |
|---|---|
| Flight time | 0h 56m |
| Altitude | 26000 |
| Route | UMRUN DCT KONEN |
| Aircraft | B738/M-SDE2E3FGHIRWXY/LB1 |
Departure
| Time | 2026-04-29 11:37 |
|---|---|
| Airport | Esenboğa International Airport (LTAC) |
Arrival
| Time | 2026-04-29 12:34 |
|---|---|
| Airport | Balıkesir Koca Seyit Airport (LTFD) |
| Time | Latitude | Longitude | Altitude | Speed | Heading |
|---|---|---|---|---|---|
| 2026-04-29 11:02 | 40.11355 | 32.98805 | 3112 ft | 0 kts | 126° |
| 2026-04-29 11:30 | 40.11362 | 32.98793 | 3112 ft | 2 kts | 126° |
| 2026-04-29 11:30 | 40.11371 | 32.98776 | 3112 ft | 2 kts | 126° |
| 2026-04-29 11:31 | 40.11381 | 32.98759 | 3112 ft | 2 kts | 133° |
| 2026-04-29 11:31 | 40.11394 | 32.98746 | 3112 ft | 2 kts | 188° |
| 2026-04-29 11:31 | 40.11403 | 32.98750 | 3112 ft | 1 kts | 219° |
| 2026-04-29 11:31 | 40.11404 | 32.98752 | 3112 ft | 0 kts | 220° |
| 2026-04-29 11:34 | 40.11404 | 32.98751 | 3112 ft | 0 kts | 220° |
| 2026-04-29 11:34 | 40.11397 | 32.98744 | 3112 ft | 2 kts | 217° |
| 2026-04-29 11:34 | 40.11373 | 32.98726 | 3112 ft | 6 kts | 209° |
| 2026-04-29 11:34 | 40.11326 | 32.98685 | 3109 ft | 11 kts | 215° |
| 2026-04-29 11:35 | 40.11273 | 32.98611 | 3109 ft | 12 kts | 259° |
| 2026-04-29 11:35 | 40.11303 | 32.98530 | 3108 ft | 10 kts | 307° |
| 2026-04-29 11:35 | 40.11342 | 32.98463 | 3108 ft | 9 kts | 308° |
| 2026-04-29 11:35 | 40.11382 | 32.98397 | 3108 ft | 9 kts | 308° |
| 2026-04-29 11:36 | 40.11427 | 32.98349 | 3108 ft | 9 kts | 3° |
| 2026-04-29 11:36 | 40.11480 | 32.98387 | 3108 ft | 9 kts | 38° |
| 2026-04-29 11:36 | 40.11670 | 32.98570 | 3110 ft | 71 kts | 36° |
| 2026-04-29 11:36 | 40.12274 | 32.99144 | 3117 ft | 141 kts | 36° |
| 2026-04-29 11:37 | 40.13201 | 33.00038 | 3399 ft | 176 kts | 33° |
| 2026-04-29 11:37 | 40.14191 | 33.01064 | 4171 ft | 187 kts | 38° |
| 2026-04-29 11:37 | 40.15182 | 33.02218 | 5027 ft | 195 kts | 40° |
| 2026-04-29 11:37 | 40.16112 | 33.03499 | 5947 ft | 197 kts | 40° |
| 2026-04-29 11:38 | 40.17308 | 33.04598 | 6294 ft | 223 kts | 30° |
| 2026-04-29 11:38 | 40.18680 | 33.05779 | 6561 ft | 248 kts | 32° |
| 2026-04-29 11:38 | 40.20264 | 33.06780 | 7024 ft | 257 kts | 11° |
| 2026-04-29 11:38 | 40.22034 | 33.06853 | 7769 ft | 256 kts | 347° |
| 2026-04-29 11:39 | 40.23715 | 33.05938 | 8251 ft | 271 kts | 320° |
| 2026-04-29 11:39 | 40.24901 | 33.04017 | 9065 ft | 276 kts | 293° |
| 2026-04-29 11:39 | 40.25303 | 33.01578 | 10036 ft | 277 kts | 271° |
| 2026-04-29 11:39 | 40.25239 | 32.99007 | 10613 ft | 292 kts | 266° |
| 2026-04-29 11:40 | 40.25072 | 32.96256 | 10832 ft | 319 kts | 265° |
| 2026-04-29 11:40 | 40.24858 | 32.93210 | 11064 ft | 343 kts | 265° |
| 2026-04-29 11:40 | 40.24644 | 32.90047 | 11684 ft | 352 kts | 265° |
| 2026-04-29 11:40 | 40.24441 | 32.86895 | 12587 ft | 353 kts | 266° |
| 2026-04-29 11:41 | 40.24246 | 32.83676 | 13346 ft | 357 kts | 266° |
| 2026-04-29 11:41 | 40.24059 | 32.80408 | 14119 ft | 361 kts | 266° |
| 2026-04-29 11:41 | 40.23877 | 32.77125 | 14861 ft | 363 kts | 266° |
| 2026-04-29 11:41 | 40.23697 | 32.73824 | 15608 ft | 365 kts | 266° |
| 2026-04-29 11:42 | 40.23515 | 32.70499 | 16318 ft | 368 kts | 266° |
| 2026-04-29 11:42 | 40.23331 | 32.67145 | 17004 ft | 371 kts | 266° |
| 2026-04-29 11:42 | 40.23145 | 32.63761 | 17712 ft | 374 kts | 266° |
| 2026-04-29 11:42 | 40.22956 | 32.60356 | 18399 ft | 377 kts | 266° |
| 2026-04-29 11:43 | 40.22762 | 32.56908 | 18975 ft | 380 kts | 266° |
| 2026-04-29 11:43 | 40.22564 | 32.53438 | 19600 ft | 382 kts | 266° |
| 2026-04-29 11:43 | 40.22363 | 32.49963 | 20194 ft | 385 kts | 266° |
| 2026-04-29 11:43 | 40.22158 | 32.46449 | 20774 ft | 388 kts | 266° |
| 2026-04-29 11:44 | 40.21954 | 32.42962 | 21321 ft | 391 kts | 266° |
| 2026-04-29 11:44 | 40.21746 | 32.39406 | 21884 ft | 393 kts | 266° |
| 2026-04-29 11:44 | 40.21534 | 32.35826 | 22429 ft | 396 kts | 266° |
| 2026-04-29 11:44 | 40.21321 | 32.32211 | 22944 ft | 399 kts | 266° |
| 2026-04-29 11:45 | 40.21104 | 32.28585 | 23473 ft | 402 kts | 266° |
| 2026-04-29 11:45 | 40.20886 | 32.24932 | 23951 ft | 404 kts | 266° |
| 2026-04-29 11:45 | 40.20665 | 32.21256 | 24398 ft | 406 kts | 266° |
| 2026-04-29 11:45 | 40.20442 | 32.17564 | 24894 ft | 406 kts | 266° |
| 2026-04-29 11:46 | 40.20219 | 32.13899 | 25493 ft | 403 kts | 267° |
| 2026-04-29 11:46 | 40.19995 | 32.10250 | 26009 ft | 402 kts | 267° |
| 2026-04-29 11:46 | 40.19769 | 32.06560 | 26038 ft | 410 kts | 267° |
| 2026-04-29 11:46 | 40.19539 | 32.02819 | 26055 ft | 415 kts | 267° |
| 2026-04-29 11:47 | 40.19306 | 31.99051 | 26048 ft | 417 kts | 267° |
| 2026-04-29 11:47 | 40.19073 | 31.95315 | 26062 ft | 420 kts | 267° |
| 2026-04-29 11:47 | 40.18833 | 31.91476 | 26065 ft | 427 kts | 266° |
| 2026-04-29 11:47 | 40.18587 | 31.87570 | 26055 ft | 432 kts | 266° |
| 2026-04-29 11:48 | 40.18342 | 31.83651 | 26055 ft | 433 kts | 266° |
| 2026-04-29 11:48 | 40.18099 | 31.79735 | 26049 ft | 432 kts | 267° |
| 2026-04-29 11:48 | 40.17856 | 31.75806 | 26051 ft | 432 kts | 267° |
| 2026-04-29 11:48 | 40.17613 | 31.71902 | 26049 ft | 432 kts | 267° |
| 2026-04-29 11:49 | 40.17368 | 31.67986 | 26054 ft | 432 kts | 267° |
| 2026-04-29 11:49 | 40.17121 | 31.64066 | 26050 ft | 431 kts | 267° |
| 2026-04-29 11:49 | 40.16877 | 31.60202 | 26055 ft | 431 kts | 267° |
| 2026-04-29 11:49 | 40.16628 | 31.56295 | 26058 ft | 431 kts | 266° |
| 2026-04-29 11:50 | 40.16378 | 31.52392 | 26058 ft | 431 kts | 267° |
| 2026-04-29 11:50 | 40.16127 | 31.48485 | 26059 ft | 430 kts | 267° |
| 2026-04-29 11:50 | 40.15874 | 31.44585 | 26062 ft | 430 kts | 266° |
| 2026-04-29 11:50 | 40.15621 | 31.40688 | 26060 ft | 430 kts | 266° |
| 2026-04-29 11:51 | 40.15366 | 31.36795 | 26063 ft | 431 kts | 266° |
| 2026-04-29 11:51 | 40.15109 | 31.32879 | 26073 ft | 431 kts | 266° |
| 2026-04-29 11:51 | 40.14851 | 31.28981 | 26070 ft | 431 kts | 266° |
| 2026-04-29 11:51 | 40.14592 | 31.25077 | 26067 ft | 431 kts | 266° |
| 2026-04-29 11:52 | 40.14331 | 31.21178 | 26072 ft | 431 kts | 266° |
| 2026-04-29 11:52 | 40.14069 | 31.17267 | 26077 ft | 432 kts | 266° |
| 2026-04-29 11:52 | 40.13809 | 31.13409 | 26067 ft | 432 kts | 266° |
| 2026-04-29 11:52 | 40.13543 | 31.09496 | 26076 ft | 432 kts | 266° |
| 2026-04-29 11:53 | 40.13278 | 31.05594 | 26078 ft | 432 kts | 266° |
| 2026-04-29 11:53 | 40.13010 | 31.01686 | 26085 ft | 432 kts | 266° |
| 2026-04-29 11:53 | 40.12741 | 30.97777 | 26083 ft | 432 kts | 266° |
| 2026-04-29 11:53 | 40.12471 | 30.93870 | 26084 ft | 432 kts | 266° |
| 2026-04-29 11:54 | 40.12199 | 30.89951 | 26090 ft | 432 kts | 266° |
| 2026-04-29 11:54 | 40.11926 | 30.86041 | 26085 ft | 432 kts | 266° |
| 2026-04-29 11:54 | 40.11651 | 30.82131 | 26089 ft | 432 kts | 266° |
| 2026-04-29 11:54 | 40.11375 | 30.78216 | 26095 ft | 432 kts | 266° |
| 2026-04-29 11:55 | 40.11099 | 30.74313 | 26092 ft | 432 kts | 266° |
| 2026-04-29 11:55 | 40.10820 | 30.70397 | 26104 ft | 432 kts | 266° |
| 2026-04-29 11:55 | 40.10541 | 30.66492 | 26097 ft | 432 kts | 266° |
| 2026-04-29 11:55 | 40.10260 | 30.62586 | 26106 ft | 431 kts | 266° |
| 2026-04-29 11:56 | 40.09977 | 30.58683 | 26110 ft | 432 kts | 266° |
| 2026-04-29 11:56 | 40.09697 | 30.54831 | 26101 ft | 432 kts | 266° |
| 2026-04-29 11:56 | 40.09413 | 30.50920 | 26109 ft | 432 kts | 266° |
| 2026-04-29 11:56 | 40.09126 | 30.47008 | 26112 ft | 432 kts | 266° |
| 2026-04-29 11:57 | 40.08839 | 30.43100 | 26103 ft | 433 kts | 266° |
| 2026-04-29 11:57 | 40.08550 | 30.39198 | 26112 ft | 433 kts | 266° |
| 2026-04-29 11:57 | 40.08259 | 30.35280 | 26109 ft | 433 kts | 266° |
| 2026-04-29 11:57 | 40.07967 | 30.31369 | 26108 ft | 433 kts | 266° |
| 2026-04-29 11:58 | 40.07674 | 30.27460 | 26112 ft | 433 kts | 266° |
| 2026-04-29 11:58 | 40.07379 | 30.23528 | 26118 ft | 436 kts | 266° |
| 2026-04-29 11:58 | 40.07080 | 30.19574 | 26121 ft | 439 kts | 266° |
| 2026-04-29 11:58 | 40.06780 | 30.15608 | 26119 ft | 439 kts | 266° |
| 2026-04-29 11:59 | 40.06477 | 30.11639 | 26114 ft | 439 kts | 266° |
| 2026-04-29 11:59 | 40.06172 | 30.07673 | 26111 ft | 439 kts | 266° |
| 2026-04-29 11:59 | 40.05865 | 30.03700 | 26104 ft | 439 kts | 266° |
| 2026-04-29 11:59 | 40.05557 | 29.99730 | 26111 ft | 439 kts | 266° |
| 2026-04-29 12:00 | 40.05248 | 29.95760 | 26114 ft | 439 kts | 266° |
| 2026-04-29 12:00 | 40.04943 | 29.91852 | 26107 ft | 439 kts | 266° |
| 2026-04-29 12:00 | 40.04632 | 29.87890 | 26110 ft | 439 kts | 266° |
| 2026-04-29 12:00 | 40.04320 | 29.83933 | 26109 ft | 438 kts | 266° |
| 2026-04-29 12:01 | 40.04007 | 29.79978 | 26100 ft | 438 kts | 266° |
| 2026-04-29 12:01 | 40.03693 | 29.76025 | 26096 ft | 438 kts | 266° |
| 2026-04-29 12:01 | 40.03378 | 29.72079 | 26110 ft | 437 kts | 265° |
| 2026-04-29 12:01 | 40.03061 | 29.68124 | 26102 ft | 437 kts | 265° |
| 2026-04-29 12:02 | 40.02744 | 29.64179 | 26095 ft | 437 kts | 265° |
| 2026-04-29 12:02 | 40.02425 | 29.60238 | 26097 ft | 437 kts | 265° |
| 2026-04-29 12:02 | 40.02105 | 29.56300 | 26098 ft | 436 kts | 265° |
| 2026-04-29 12:02 | 40.01893 | 29.53688 | 26097 ft | 436 kts | 265° |
| 2026-04-29 12:03 | 40.01570 | 29.49747 | 26101 ft | 436 kts | 265° |
| 2026-04-29 12:03 | 40.01142 | 29.44530 | 26092 ft | 436 kts | 265° |
| 2026-04-29 12:03 | 40.00816 | 29.40592 | 26096 ft | 436 kts | 265° |
| 2026-04-29 12:03 | 40.00490 | 29.36665 | 26089 ft | 437 kts | 265° |
| 2026-04-29 12:04 | 40.00268 | 29.33996 | 26086 ft | 437 kts | 265° |
| 2026-04-29 12:04 | 39.99940 | 29.30060 | 26091 ft | 437 kts | 265° |
| 2026-04-29 12:04 | 39.99610 | 29.26127 | 26086 ft | 437 kts | 265° |
| 2026-04-29 12:04 | 39.99282 | 29.22228 | 26097 ft | 438 kts | 265° |
| 2026-04-29 12:05 | 39.98949 | 29.18289 | 26092 ft | 438 kts | 265° |
| 2026-04-29 12:05 | 39.98613 | 29.14339 | 26099 ft | 438 kts | 265° |
| 2026-04-29 12:05 | 39.98272 | 29.10334 | 26090 ft | 439 kts | 265° |
| 2026-04-29 12:05 | 39.97938 | 29.06433 | 26096 ft | 439 kts | 265° |
| 2026-04-29 12:06 | 39.97597 | 29.02468 | 26101 ft | 439 kts | 265° |
| 2026-04-29 12:06 | 39.97255 | 28.98508 | 26090 ft | 440 kts | 265° |
| 2026-04-29 12:06 | 39.96913 | 28.94555 | 26103 ft | 439 kts | 265° |
| 2026-04-29 12:06 | 39.96568 | 28.90597 | 26092 ft | 439 kts | 265° |
| 2026-04-29 12:07 | 39.96222 | 28.86633 | 26104 ft | 439 kts | 265° |
| 2026-04-29 12:07 | 39.95762 | 28.81392 | 26112 ft | 439 kts | 265° |
| 2026-04-29 12:07 | 39.95527 | 28.78724 | 26101 ft | 439 kts | 265° |
| 2026-04-29 12:07 | 39.95177 | 28.74765 | 26106 ft | 439 kts | 265° |
| 2026-04-29 12:08 | 39.94827 | 28.70815 | 26107 ft | 439 kts | 265° |
| 2026-04-29 12:08 | 39.94475 | 28.66865 | 26112 ft | 439 kts | 265° |
| 2026-04-29 12:08 | 39.94126 | 28.62957 | 26105 ft | 440 kts | 265° |
| 2026-04-29 12:08 | 39.93766 | 28.58958 | 26103 ft | 440 kts | 265° |
| 2026-04-29 12:09 | 39.93414 | 28.55054 | 26119 ft | 440 kts | 265° |
| 2026-04-29 12:09 | 39.93062 | 28.51163 | 26099 ft | 423 kts | 264° |
| 2026-04-29 12:09 | 39.92721 | 28.47438 | 26100 ft | 406 kts | 265° |
| 2026-04-29 12:09 | 39.92389 | 28.43798 | 26099 ft | 402 kts | 264° |
| 2026-04-29 12:10 | 39.92062 | 28.40225 | 25828 ft | 392 kts | 265° |
| 2026-04-29 12:10 | 39.91743 | 28.36752 | 25574 ft | 381 kts | 265° |
| 2026-04-29 12:10 | 39.91430 | 28.33357 | 25328 ft | 376 kts | 264° |
| 2026-04-29 12:10 | 39.91119 | 28.29976 | 25097 ft | 376 kts | 264° |
| 2026-04-29 12:11 | 39.90805 | 28.26579 | 24866 ft | 377 kts | 264° |
| 2026-04-29 12:11 | 39.90491 | 28.23189 | 24634 ft | 377 kts | 264° |
| 2026-04-29 12:11 | 39.90176 | 28.19798 | 24400 ft | 377 kts | 264° |
| 2026-04-29 12:11 | 39.89859 | 28.16407 | 24165 ft | 376 kts | 264° |
| 2026-04-29 12:12 | 39.89542 | 28.13033 | 23931 ft | 375 kts | 264° |
| 2026-04-29 12:12 | 39.89229 | 28.09711 | 23697 ft | 374 kts | 264° |
| 2026-04-29 12:12 | 39.88907 | 28.06306 | 23425 ft | 372 kts | 264° |
| 2026-04-29 12:12 | 39.88591 | 28.02962 | 23151 ft | 371 kts | 264° |
| 2026-04-29 12:13 | 39.88279 | 27.99684 | 22890 ft | 369 kts | 264° |
| 2026-04-29 12:13 | 39.87962 | 27.96365 | 22610 ft | 368 kts | 264° |
| 2026-04-29 12:13 | 39.87648 | 27.93075 | 22351 ft | 366 kts | 264° |
| 2026-04-29 12:13 | 39.87332 | 27.89784 | 22083 ft | 365 kts | 264° |
| 2026-04-29 12:14 | 39.87017 | 27.86512 | 21821 ft | 363 kts | 264° |
| 2026-04-29 12:14 | 39.86703 | 27.83255 | 21568 ft | 362 kts | 264° |
| 2026-04-29 12:14 | 39.86389 | 27.80006 | 21305 ft | 361 kts | 264° |
| 2026-04-29 12:14 | 39.86074 | 27.76765 | 21051 ft | 360 kts | 264° |
| 2026-04-29 12:15 | 39.85761 | 27.73549 | 20668 ft | 357 kts | 264° |
| 2026-04-29 12:15 | 39.85450 | 27.70365 | 20238 ft | 353 kts | 264° |
| 2026-04-29 12:15 | 39.85140 | 27.67208 | 19802 ft | 350 kts | 264° |
| 2026-04-29 12:15 | 39.84833 | 27.64073 | 19377 ft | 348 kts | 264° |
| 2026-04-29 12:16 | 39.84526 | 27.60962 | 18954 ft | 346 kts | 264° |
| 2026-04-29 12:16 | 39.84220 | 27.57863 | 18519 ft | 344 kts | 264° |
| 2026-04-29 12:16 | 39.83915 | 27.54777 | 18032 ft | 343 kts | 264° |
| 2026-04-29 12:16 | 39.83611 | 27.51706 | 17577 ft | 341 kts | 264° |
| 2026-04-29 12:17 | 39.83310 | 27.48682 | 17125 ft | 340 kts | 263° |
| 2026-04-29 12:17 | 39.83007 | 27.45645 | 16688 ft | 338 kts | 263° |
| 2026-04-29 12:17 | 39.82704 | 27.42620 | 16256 ft | 336 kts | 263° |
| 2026-04-29 12:17 | 39.82403 | 27.39614 | 15780 ft | 336 kts | 263° |
| 2026-04-29 12:18 | 39.82100 | 27.36589 | 15348 ft | 335 kts | 263° |
| 2026-04-29 12:18 | 39.81797 | 27.33595 | 14912 ft | 333 kts | 263° |
| 2026-04-29 12:18 | 39.81496 | 27.30621 | 14503 ft | 332 kts | 263° |
| 2026-04-29 12:18 | 39.81063 | 27.27676 | 14077 ft | 331 kts | 251° |
| 2026-04-29 12:19 | 39.80008 | 27.25001 | 13557 ft | 334 kts | 240° |
| 2026-04-29 12:19 | 39.78763 | 27.22453 | 13095 ft | 333 kts | 239° |
| 2026-04-29 12:19 | 39.77505 | 27.19931 | 12643 ft | 331 kts | 239° |
| 2026-04-29 12:19 | 39.76263 | 27.17417 | 12226 ft | 329 kts | 239° |
| 2026-04-29 12:20 | 39.75038 | 27.14902 | 11802 ft | 328 kts | 240° |
| 2026-04-29 12:20 | 39.73825 | 27.12397 | 11385 ft | 326 kts | 240° |
| 2026-04-29 12:20 | 39.72621 | 27.09904 | 10977 ft | 325 kts | 240° |
| 2026-04-29 12:20 | 39.71361 | 27.07462 | 10586 ft | 325 kts | 237° |
| 2026-04-29 12:21 | 39.70044 | 27.05128 | 10438 ft | 315 kts | 236° |
| 2026-04-29 12:21 | 39.68764 | 27.02909 | 10302 ft | 307 kts | 236° |
| 2026-04-29 12:21 | 39.67498 | 27.00709 | 10141 ft | 299 kts | 236° |
| 2026-04-29 12:21 | 39.66276 | 26.98579 | 10058 ft | 291 kts | 237° |
| 2026-04-29 12:22 | 39.65081 | 26.96479 | 9741 ft | 286 kts | 236° |
| 2026-04-29 12:22 | 39.63917 | 26.94439 | 9443 ft | 277 kts | 236° |
| 2026-04-29 12:22 | 39.62782 | 26.92443 | 9172 ft | 274 kts | 236° |
| 2026-04-29 12:22 | 39.61654 | 26.90451 | 8881 ft | 273 kts | 236° |
| 2026-04-29 12:23 | 39.60528 | 26.88462 | 8607 ft | 274 kts | 236° |
| 2026-04-29 12:23 | 39.59400 | 26.86476 | 8313 ft | 273 kts | 236° |
| 2026-04-29 12:23 | 39.58275 | 26.84495 | 8038 ft | 273 kts | 236° |
| 2026-04-29 12:23 | 39.57157 | 26.82531 | 7895 ft | 264 kts | 236° |
| 2026-04-29 12:24 | 39.56093 | 26.80665 | 7796 ft | 250 kts | 236° |
| 2026-04-29 12:24 | 39.55093 | 26.78914 | 7707 ft | 234 kts | 236° |
| 2026-04-29 12:24 | 39.54157 | 26.77270 | 7604 ft | 219 kts | 237° |
| 2026-04-29 12:24 | 39.53282 | 26.75735 | 7477 ft | 206 kts | 237° |
| 2026-04-29 12:25 | 39.52456 | 26.74287 | 7343 ft | 196 kts | 237° |
| 2026-04-29 12:25 | 39.51654 | 26.72879 | 7075 ft | 194 kts | 237° |
| 2026-04-29 12:25 | 39.49985 | 26.70154 | 6453 ft | 195 kts | 233° |
| 2026-04-29 12:26 | 39.49108 | 26.68771 | 6017 ft | 203 kts | 233° |
| 2026-04-29 12:26 | 39.48158 | 26.67392 | 5560 ft | 210 kts | 217° |
| 2026-04-29 12:26 | 39.46764 | 26.66906 | 5116 ft | 213 kts | 170° |
| 2026-04-29 12:26 | 39.45506 | 26.67793 | 4790 ft | 206 kts | 131° |
| 2026-04-29 12:27 | 39.44507 | 26.69109 | 4453 ft | 205 kts | 134° |
| 2026-04-29 12:27 | 39.43457 | 26.70347 | 4155 ft | 201 kts | 136° |
| 2026-04-29 12:27 | 39.42437 | 26.71484 | 4078 ft | 187 kts | 137° |
| 2026-04-29 12:27 | 39.41443 | 26.72581 | 4089 ft | 188 kts | 134° |
| 2026-04-29 12:28 | 39.40886 | 26.74008 | 4076 ft | 176 kts | 85° |
| 2026-04-29 12:28 | 39.41282 | 26.75483 | 4101 ft | 177 kts | 60° |
| 2026-04-29 12:28 | 39.41858 | 26.76896 | 4085 ft | 175 kts | 59° |
| 2026-04-29 12:28 | 39.42475 | 26.78267 | 3953 ft | 179 kts | 56° |
| 2026-04-29 12:29 | 39.43170 | 26.79615 | 3738 ft | 180 kts | 53° |
| 2026-04-29 12:29 | 39.43894 | 26.80930 | 3504 ft | 178 kts | 53° |
| 2026-04-29 12:29 | 39.44606 | 26.82204 | 3266 ft | 175 kts | 53° |
| 2026-04-29 12:29 | 39.45322 | 26.83479 | 3030 ft | 171 kts | 52° |
| 2026-04-29 12:30 | 39.46017 | 26.84710 | 2809 ft | 170 kts | 53° |
| 2026-04-29 12:30 | 39.46714 | 26.85942 | 2657 ft | 176 kts | 53° |
| 2026-04-29 12:30 | 39.47482 | 26.87287 | 2314 ft | 191 kts | 51° |
| 2026-04-29 12:30 | 39.48236 | 26.88632 | 2079 ft | 176 kts | 54° |
| 2026-04-29 12:31 | 39.48935 | 26.89876 | 1845 ft | 162 kts | 54° |
| 2026-04-29 12:31 | 39.49558 | 26.90978 | 1627 ft | 144 kts | 55° |
| 2026-04-29 12:31 | 39.50127 | 26.91985 | 1426 ft | 136 kts | 55° |
| 2026-04-29 12:31 | 39.50711 | 26.93020 | 1283 ft | 149 kts | 56° |
| 2026-04-29 12:32 | 39.51322 | 26.94095 | 1063 ft | 145 kts | 57° |
| 2026-04-29 12:32 | 39.51915 | 26.95143 | 878 ft | 143 kts | 58° |
| 2026-04-29 12:32 | 39.52480 | 26.96180 | 729 ft | 140 kts | 56° |
| 2026-04-29 12:32 | 39.53066 | 26.97192 | 559 ft | 138 kts | 56° |
| 2026-04-29 12:33 | 39.53624 | 26.98189 | 328 ft | 138 kts | 54° |
| 2026-04-29 12:33 | 39.54198 | 26.99186 | 159 ft | 137 kts | 56° |
| 2026-04-29 12:33 | 39.54753 | 27.00162 | 49 ft | 129 kts | 56° |
| 2026-04-29 12:33 | 39.55211 | 27.00965 | 50 ft | 90 kts | 54° |
| 2026-04-29 12:34 | 39.55491 | 27.01458 | 52 ft | 46 kts | 55° |
| 2026-04-29 12:34 | 39.55596 | 27.01662 | 52 ft | 9 kts | 77° |
| 2026-04-29 12:34 | 39.55615 | 27.01700 | 52 ft | 4 kts | 17° |
| 2026-04-29 12:34 | 39.55633 | 27.01686 | 52 ft | 3 kts | 294° |
| 2026-04-29 12:35 | 39.55625 | 27.01663 | 52 ft | 4 kts | 225° |
| 2026-04-29 12:35 | 39.55594 | 27.01623 | 52 ft | 9 kts | 225° |
| 2026-04-29 12:35 | 39.55532 | 27.01541 | 52 ft | 16 kts | 229° |
| 2026-04-29 12:35 | 39.55456 | 27.01404 | 53 ft | 21 kts | 234° |
| 2026-04-29 12:36 | 39.55359 | 27.01228 | 52 ft | 27 kts | 234° |
| 2026-04-29 12:36 | 39.55250 | 27.01030 | 51 ft | 21 kts | 234° |
| 2026-04-29 12:36 | 39.55173 | 27.00945 | 49 ft | 10 kts | 180° |
| 2026-04-29 12:36 | 39.55116 | 27.00993 | 50 ft | 10 kts | 141° |
| 2026-04-29 12:37 | 39.55063 | 27.01045 | 50 ft | 9 kts | 147° |
| 2026-04-29 12:37 | 39.55008 | 27.01090 | 50 ft | 9 kts | 144° |
| 2026-04-29 12:37 | 39.54994 | 27.01149 | 49 ft | 4 kts | 113° |
| 2026-04-29 12:37 | 39.54973 | 27.01178 | 51 ft | 4 kts | 141° |
| 2026-04-29 12:38 | 39.54955 | 27.01196 | 51 ft | 0 kts | 143° |